createdAt,value
2023-03-20T00:03:01.022Z,93516.38
2023-03-20T00:08:09.378Z,93518.42
2023-03-20T00:13:28.071Z,93510.20
2023-03-20T00:18:36.784Z,93507.59
2023-03-20T00:23:43.650Z,93507.47
2023-03-20T00:28:52.541Z,93509.75
2023-03-20T00:34:02.231Z,93504.41
2023-03-20T00:39:09.262Z,93501.83
2023-03-20T00:44:32.239Z,93502.10
2023-03-20T00:49:39.445Z,93495.87
2023-03-20T00:54:46.252Z,93495.18
2023-03-20T01:00:06.137Z,93501.52
2023-03-20T01:05:13.371Z,93493.32
2023-03-20T01:10:20.889Z,93495.23
2023-03-20T01:15:34.431Z,93492.11
2023-03-20T01:20:42.053Z,93488.05
2023-03-20T01:25:49.103Z,93490.58
2023-03-20T01:30:56.585Z,93485.56
2023-03-20T01:36:03.959Z,93485.13
2023-03-20T01:41:18.387Z,93484.56
2023-03-20T01:46:33.450Z,93480.17
2023-03-20T01:51:40.218Z,93475.09
2023-03-20T01:56:56.695Z,93480.65
2023-03-20T02:02:03.941Z,93487.79
2023-03-20T02:07:13.086Z,93487.05
2023-03-20T02:12:21.958Z,93484.84
2023-03-20T02:17:29.557Z,93478.69
2023-03-20T02:22:41.052Z,93483.45
2023-03-20T02:28:17.835Z,93484.59
2023-03-20T02:33:44.059Z,93487.05
2023-03-20T02:39:04.246Z,93481.58
2023-03-20T02:44:30.132Z,93480.78
2023-03-20T02:49:49.904Z,93478.61
2023-03-20T02:55:28.183Z,93484.41
2023-03-20T03:00:46.862Z,93483.83
2023-03-20T03:06:10.398Z,93479.05
2023-03-20T03:11:17.781Z,93481.48
2023-03-20T03:16:28.966Z,93478.88
2023-03-20T03:21:38.512Z,93483.30
2023-03-20T03:26:45.280Z,93485.11
2023-03-20T03:31:52.675Z,93490.04
2023-03-20T03:37:09.954Z,93483.96
2023-03-20T03:42:31.982Z,93481.23
2023-03-20T03:47:57.888Z,93486.38
2023-03-20T03:53:09.089Z,93483.30
2023-03-20T03:58:23.012Z,93488.72
2023-03-20T04:03:34.581Z,93495.80
2023-03-20T04:08:43.626Z,93503.36
2023-03-20T04:13:52.518Z,93522.63
2023-03-20T04:18:59.541Z,93520.67
2023-03-20T04:24:07.104Z,93518.34
2023-03-20T04:29:13.824Z,93523.41
2023-03-20T04:34:20.664Z,93525.55
2023-03-20T04:39:27.360Z,93521.05
2023-03-20T04:44:35.202Z,93528.15
2023-03-20T04:49:41.886Z,93531.63
2023-03-20T04:54:48.654Z,93531.63
2023-03-20T04:59:55.852Z,93539.47
2023-03-20T05:05:02.460Z,93528.59
2023-03-20T05:10:09.950Z,93541.04
2023-03-20T05:15:16.573Z,93547.73
2023-03-20T05:20:23.213Z,93546.14
2023-03-20T05:25:30.176Z,93551.16
2023-03-20T05:30:37.526Z,93564.64
2023-03-20T05:35:45.036Z,93560.69
2023-03-20T05:40:52.333Z,93560.74
2023-03-20T05:45:59.752Z,93565.57
2023-03-20T05:51:07.291Z,93570.62
2023-03-20T05:56:14.356Z,93569.93
2023-03-20T06:01:22.015Z,93574.22
2023-03-20T06:06:28.918Z,93572.71
2023-03-20T06:11:37.710Z,93573.02
2023-03-20T06:16:44.584Z,93578.86
2023-03-20T06:21:52.340Z,93580.73
2023-03-20T06:26:59.471Z,93577.80
2023-03-20T06:32:11.985Z,93590.23
2023-03-20T06:37:18.676Z,93581.52
2023-03-20T06:42:25.395Z,93586.55
2023-03-20T06:47:32.091Z,93596.11
2023-03-20T06:52:38.853Z,93601.92
2023-03-20T06:57:45.640Z,93604.31
2023-03-20T07:02:52.325Z,93613.83
2023-03-20T07:07:59.232Z,93615.68
2023-03-20T07:13:06.345Z,93614.11
2023-03-20T07:18:13.018Z,93614.64
2023-03-20T07:23:20.801Z,93613.34
2023-03-20T07:28:27.599Z,93615.17
2023-03-20T07:33:34.245Z,93626.30
2023-03-20T07:38:42.357Z,93632.13
2023-03-20T07:43:49.083Z,93635.86
2023-03-20T07:48:57.472Z,93634.23
2023-03-20T07:54:04.287Z,93640.36
2023-03-20T07:59:11.539Z,93634.52
2023-03-20T08:04:20.150Z,93635.04
2023-03-20T08:09:27.335Z,93645.63
2023-03-20T08:14:34.130Z,93645.13
2023-03-20T08:19:40.809Z,93643.79
2023-03-20T08:24:47.502Z,93651.23
2023-03-20T08:29:54.209Z,93654.13
2023-03-20T08:35:01.048Z,93662.34
2023-03-20T08:40:09.385Z,93660.47
2023-03-20T08:45:17.890Z,93667.92
2023-03-20T08:50:26.726Z,93663.94
2023-03-20T08:55:33.932Z,93658.90
2023-03-20T09:00:40.820Z,93662.09
2023-03-20T09:05:49.724Z,93677.75
2023-03-20T09:10:57.825Z,93674.56
2023-03-20T09:16:04.719Z,93668.97
2023-03-20T09:21:11.458Z,93685.66
2023-03-20T09:26:18.151Z,93680.89
2023-03-20T09:31:24.972Z,93678.12
2023-03-20T09:36:31.691Z,93682.33
2023-03-20T09:41:53.216Z,93678.05
2023-03-20T09:47:18.970Z,93682.25
2023-03-20T09:52:36.103Z,93676.64
2023-03-20T09:57:47.267Z,93682.69
2023-03-20T10:03:06.939Z,93689.11
2023-03-20T10:08:20.185Z,93690.25
2023-03-20T10:14:02.628Z,93683.64
2023-03-20T10:19:26.443Z,93684.95
2023-03-20T10:24:43.196Z,93687.37
2023-03-20T10:29:57.514Z,93693.45
2023-03-20T10:35:33.839Z,93687.37
2023-03-20T10:40:42.677Z,93692.37
2023-03-20T10:45:53.347Z,93681.69
2023-03-20T10:51:03.527Z,93684.70
2023-03-20T10:56:16.972Z,93683.06
2023-03-20T11:01:23.441Z,93676.05
2023-03-20T11:06:33.046Z,93676.23
2023-03-20T11:11:43.192Z,93670.21
2023-03-20T11:16:55.906Z,93664.95
2023-03-20T11:22:10.063Z,93663.52
2023-03-20T11:27:28.126Z,93660.67
2023-03-20T11:32:39.093Z,93662.34
2023-03-20T11:37:52.377Z,93658.33
2023-03-20T11:43:05.780Z,93665.09
2023-03-20T11:48:28.781Z,93659.52
2023-03-20T11:53:40.114Z,93654.23
2023-03-20T11:59:15.417Z,93649.22
2023-03-20T12:04:41.696Z,93646.65
2023-03-20T12:10:10.881Z,93639.86
2023-03-20T12:15:27.742Z,93630.41
2023-03-20T12:20:56.877Z,93621.48
2023-03-20T12:26:32.029Z,93621.45
2023-03-20T12:31:55.354Z,93618.48
2023-03-20T12:37:02.553Z,93610.44
2023-03-20T12:42:31.585Z,93612.22
2023-03-20T12:47:45.762Z,93609.33
2023-03-20T12:53:03.013Z,93609.13
2023-03-20T12:58:20.308Z,93611.55
2023-03-20T13:03:52.026Z,93610.34
2023-03-20T13:09:42.987Z,93601.59
2023-03-20T13:15:24.704Z,93594.12
2023-03-20T13:20:38.798Z,93596.69
2023-03-20T13:26:18.282Z,93593.39
2023-03-20T13:31:47.638Z,93592.02
2023-03-20T13:37:25.897Z,93590.97
2023-03-20T13:42:31.345Z,93583.20
2023-03-20T13:47:40.434Z,93588.49
2023-03-20T13:53:04.565Z,93586.93
2023-03-20T13:58:39.750Z,93579.61
2023-03-20T14:03:49.268Z,93579.69
2023-03-20T14:08:57.271Z,93576.55
2023-03-20T14:14:23.151Z,93581.36
2023-03-20T14:19:31.636Z,93584.06
2023-03-20T14:24:41.690Z,93574.86
2023-03-20T14:29:49.382Z,93563.11
2023-03-20T14:35:24.602Z,93569.27
2023-03-20T14:40:35.738Z,93570.33
2023-03-20T14:46:11.257Z,93569.53
2023-03-20T14:51:40.578Z,93556.00
2023-03-20T14:56:47.352Z,93566.86
2023-03-20T15:02:02.340Z,93565.47
2023-03-20T15:07:25.223Z,93557.22
2023-03-20T15:12:37.819Z,93546.14
2023-03-20T15:17:49.155Z,93547.94
2023-03-20T15:23:05.339Z,93547.73
2023-03-20T15:28:27.469Z,93551.66
2023-03-20T15:33:42.465Z,93553.55
2023-03-20T15:38:51.074Z,93552.16
2023-03-20T15:44:19.419Z,93548.52
2023-03-20T15:49:27.094Z,93548.14
2023-03-20T15:54:35.651Z,93556.02
2023-03-20T15:59:43.355Z,93554.28
2023-03-20T16:04:54.950Z,93558.02
2023-03-20T16:10:03.248Z,93558.52
2023-03-20T16:15:14.333Z,93560.90
2023-03-20T16:20:22.341Z,93564.73
2023-03-20T16:25:29.338Z,93564.50
2023-03-20T16:30:37.998Z,93569.70
2023-03-20T16:35:52.762Z,93577.09
2023-03-20T16:41:17.633Z,93578.16
2023-03-20T16:46:27.994Z,93579.02
2023-03-20T16:51:34.900Z,93582.23
2023-03-20T16:56:41.854Z,93599.50
2023-03-20T17:01:52.451Z,93588.90
2023-03-20T17:07:03.601Z,93596.44
2023-03-20T17:12:19.772Z,93589.23
2023-03-20T17:17:28.107Z,93593.22
2023-03-20T17:22:35.349Z,93596.98
2023-03-20T17:27:42.504Z,93590.70
2023-03-20T17:32:49.973Z,93589.67
2023-03-20T17:37:57.279Z,93597.13
2023-03-20T17:43:04.411Z,93589.41
2023-03-20T17:48:21.223Z,93588.34
2023-03-20T17:53:30.492Z,93600.05
2023-03-20T17:58:37.391Z,93603.27
2023-03-20T18:03:44.385Z,93596.05
2023-03-20T18:08:51.252Z,93602.98
2023-03-20T18:13:58.184Z,93601.47
2023-03-20T18:19:05.418Z,93599.09
2023-03-20T18:24:12.216Z,93598.55
2023-03-20T18:29:19.437Z,93603.05
2023-03-20T18:34:26.735Z,93604.18
2023-03-20T18:39:33.883Z,93608.20
2023-03-20T18:44:40.757Z,93604.25
2023-03-20T18:49:47.486Z,93610.91
2023-03-20T18:54:54.306Z,93615.42
2023-03-20T19:00:01.312Z,93616.22
2023-03-20T19:05:08.785Z,93618.89
2023-03-20T19:10:40.502Z,93611.45
2023-03-20T19:15:48.679Z,93615.72
2023-03-20T19:20:58.309Z,93621.27
2023-03-20T19:26:05.020Z,93622.08
2023-03-20T19:31:12.402Z,93619.67
2023-03-20T19:36:34.838Z,93626.56
2023-03-20T19:41:41.948Z,93626.80
2023-03-20T19:46:49.944Z,93620.47
2023-03-20T19:51:56.980Z,93623.65
2023-03-20T19:57:03.742Z,93623.63
2023-03-20T20:02:13.263Z,93629.16
2023-03-20T20:08:06.215Z,93631.52
2023-03-20T20:12:30.130Z,93632.26
2023-03-20T20:17:37.192Z,93630.94
2023-03-20T20:22:44.297Z,93629.02
2023-03-20T20:27:51.034Z,93626.11
2023-03-20T20:33:03.426Z,93623.11
2023-03-20T20:38:37.004Z,93627.91
2023-03-20T20:43:39.002Z,93624.73
2023-03-20T20:48:24.669Z,93632.02
2023-03-20T20:53:31.653Z,93627.45
2023-03-20T20:58:38.827Z,93632.40
2023-03-20T21:03:45.857Z,93629.84
2023-03-20T21:08:52.850Z,93627.53
2023-03-20T21:13:59.600Z,93622.02
2023-03-20T21:19:06.829Z,93630.77
2023-03-20T21:24:31.564Z,93635.80
2023-03-20T21:29:23.194Z,93640.82
2023-03-20T21:34:30.744Z,93636.41
2023-03-20T21:39:38.981Z,93634.86
2023-03-20T21:45:46.258Z,93632.48
2023-03-20T21:55:57.519Z,93634.06
2023-03-20T22:06:21.088Z,93634.92
2023-03-20T22:16:31.270Z,93633.19
2023-03-20T22:21:41.888Z,93636.67
2023-03-20T22:27:05.332Z,93637.25
2023-03-20T22:46:48.068Z,93634.31
2023-03-20T22:57:04.231Z,93626.03
2023-03-20T23:02:10.917Z,93630.67
2023-03-20T23:07:17.862Z,93631.91
2023-03-20T23:12:24.815Z,93632.34
2023-03-20T23:17:31.892Z,93634.70
2023-03-20T23:22:38.855Z,93629.01
2023-03-20T23:27:45.603Z,93624.38
2023-03-20T23:32:52.603Z,93618.45
2023-03-20T23:37:59.358Z,93618.31
2023-03-20T23:43:06.343Z,93619.06
2023-03-20T23:48:14.203Z,93619.91
2023-03-20T23:53:21.554Z,93613.30
2023-03-20T23:58:30.972Z,93618.33
